Time;durP1;ratioP1;P1;durP2;ratioP2;P2;SDS_P1;SDS_P2;PMS_P1;PMS_P2;Temp;Humidity;BMP_temperature;BMP_pressure;BME280_temperature;BME280_humidity;BME280_pressure;Samples;Min_cycle;Max_cycle;Signal;HPM_P1;HPM_P2
2022/08/29 00:01:27;;;;;;;5.60;3.65;;;;;;;19.93;98.57;98951.66;1714315;84;21003;-60
2022/08/29 00:03:55;;;;;;;3.67;3.30;;;;;;;19.96;97.14;98955.88;1714174;84;21517;-51
2022/08/29 00:06:21;;;;;;;4.83;3.37;;;;;;;19.97;95.93;98957.03;1714120;83;21003;-50
2022/08/29 00:08:46;;;;;;;3.80;3.50;;;;;;;19.91;98.06;98958.48;1714079;83;21023;-54
2022/08/29 00:11:13;;;;;;;5.08;3.25;;;;;;;19.92;97.62;98958.84;1714135;83;20987;-52
2022/08/29 00:13:39;;;;;;;5.62;3.60;;;;;;;19.91;97.53;98959.81;1714173;83;21023;-54
2022/08/29 00:16:05;;;;;;;4.05;3.65;;;;;;;19.94;96.08;98957.36;1713970;84;20995;-55
2022/08/29 00:18:32;;;;;;;3.90;3.22;;;;;;;19.95;97.62;98960.35;1714319;83;20987;-48
2022/08/29 00:20:58;;;;;;;11.57;3.58;;;;;;;19.93;97.59;98958.34;1714298;83;21468;-52
2022/08/29 00:23:24;;;;;;;3.83;3.10;;;;;;;19.88;98.92;98955.28;1714087;83;21023;-52
2022/08/29 00:25:49;;;;;;;2.98;2.62;;;;;;;19.80;98.03;98960.05;1714026;83;20995;-55
2022/08/29 00:28:15;;;;;;;6.20;2.47;;;;;;;19.77;97.07;98967.02;1714096;83;20967;-48
2022/08/29 00:30:41;;;;;;;2.70;2.50;;;;;;;19.77;97.65;98958.18;1714031;83;20987;-46
2022/08/29 00:33:08;;;;;;;2.77;2.52;;;;;;;19.66;99.95;98952.03;1714127;84;21023;-46
2022/08/29 00:35:38;;;;;;;4.93;2.80;;;;;;;19.65;99.90;98956.22;1714291;83;20967;-44
2022/08/29 00:38:07;;;;;;;2.62;2.42;;;;;;;19.61;100.00;98958.34;1713955;84;20979;-40
2022/08/29 00:40:40;;;;;;;3.25;2.95;;;;;;;19.63;98.21;98956.36;1713992;84;21003;-57
2022/08/29 00:43:08;;;;;;;6.15;3.42;;;;;;;19.58;100.00;98955.97;1714031;83;20987;-43
2022/08/29 00:45:37;;;;;;;7.08;3.45;;;;;;;19.61;99.20;98960.15;1714209;83;21039;-46
2022/08/29 00:48:11;;;;;;;3.87;3.58;;;;;;;19.63;98.75;98960.83;1714613;83;21058;-42
2022/08/29 00:50:58;;;;;;;4.62;3.40;;;;;;;19.59;98.69;98959.47;1714297;83;20995;-53
2022/08/29 00:53:32;;;;;;;5.15;3.67;;;;;;;19.50;100.00;98962.06;1714303;84;20951;-46
2022/08/29 00:55:59;;;;;;;4.05;3.67;;;;;;;19.53;99.16;98955.08;1712477;82;21453;-43
2022/08/29 00:58:35;;;;;;;8.40;4.47;;;;;;;19.55;99.59;98957.13;1714440;83;20986;-57
2022/08/29 01:01:01;;;;;;;9.83;4.37;;;;;;;19.53;99.24;98955.58;1714297;84;20971;-53
2022/08/29 01:03:30;;;;;;;5.17;4.53;;;;;;;19.53;100.00;98955.08;1716266;83;20983;-41
2022/08/29 01:05:56;;;;;;;7.15;5.60;;;;;;;19.56;98.76;98961.45;1716272;83;20995;-51
2022/08/29 01:08:21;;;;;;;7.47;5.53;;;;;;;19.57;99.66;98962.28;1716319;83;21015;-47
2022/08/29 01:13:36;;;;;;;7.37;5.10;;;;;;;19.45;100.00;98968.33;1716387;83;21067;-46
2022/08/29 01:16:04;;;;;;;6.78;5.62;;;;;;;19.39;100.00;98967.58;1716328;83;21527;-54
2022/08/29 01:18:33;;;;;;;7.97;5.58;;;;;;;19.31;100.00;98973.66;1716473;83;21046;-45
2022/08/29 01:21:19;;;;;;;7.75;5.08;;;;;;;19.31;100.00;98970.16;1716396;83;21027;-52
2022/08/29 01:24:07;;;;;;;7.78;5.58;;;;;;;19.29;100.00;98968.97;1721232;82;20971;-54
2022/08/29 01:26:33;;;;;;;6.08;5.03;;;;;;;19.18;100.00;98967.34;1716287;83;21027;-50
2022/08/29 01:28:59;;;;;;;5.53;5.03;;;;;;;19.18;100.00;98970.01;1716553;83;21026;-52
2022/08/29 01:31:30;;;;;;;7.00;5.15;;;;;;;19.16;100.00;98976.48;1716290;82;21026;-49
2022/08/29 01:33:58;;;;;;;7.95;5.60;;;;;;;19.17;100.00;98979.48;1714521;82;20983;-46
2022/08/29 01:36:29;;;;;;;6.78;5.62;;;;;;;19.19;100.00;98985.50;1716306;83;20967;-50
2022/08/29 01:38:55;;;;;;;6.62;5.53;;;;;;;19.17;100.00;98987.48;1698418;83;21555;-51
2022/08/29 01:41:21;;;;;;;9.15;5.70;;;;;;;19.16;100.00;98989.31;1716412;83;20963;-48
2022/08/29 01:43:51;;;;;;;7.10;5.58;;;;;;;19.23;100.00;98986.05;1716353;83;21587;-56
2022/08/29 01:46:25;;;;;;;8.63;6.28;;;;;;;19.16;100.00;98987.98;1716271;83;21536;-49
2022/08/29 01:48:51;;;;;;;10.53;6.70;;;;;;;19.19;100.00;98990.83;1714888;82;21027;-50
2022/08/29 01:51:18;;;;;;;9.63;6.15;;;;;;;19.15;100.00;98999.61;1714059;83;21505;-49
2022/08/29 01:53:45;;;;;;;8.10;5.87;;;;;;;19.17;100.00;98995.00;1714009;83;21015;-47
2022/08/29 01:56:15;;;;;;;8.50;5.75;;;;;;;19.14;100.00;99001.13;1714104;84;20991;-49
2022/08/29 01:58:43;;;;;;;8.35;6.60;;;;;;;19.09;100.00;99005.55;1714020;82;20968;-45
2022/08/29 02:01:10;;;;;;;11.40;6.58;;;;;;;19.08;100.00;99009.21;1713941;84;21493;-52
2022/08/29 02:03:37;;;;;;;9.15;6.17;;;;;;;19.09;100.00;99002.87;1714001;84;20980;-54
2022/08/29 02:06:05;;;;;;;8.90;6.53;;;;;;;19.10;100.00;99003.71;1714144;83;21481;-51
2022/08/29 02:08:30;;;;;;;8.45;6.28;;;;;;;19.09;100.00;99015.38;1714170;83;20988;-46
2022/08/29 02:10:57;;;;;;;15.75;7.20;;;;;;;19.15;100.00;99016.94;1714074;83;21489;-46
2022/08/29 02:13:23;;;;;;;9.93;6.95;;;;;;;19.08;100.00;99015.02;1714387;84;21504;-56
2022/08/29 02:15:50;;;;;;;10.43;6.47;;;;;;;19.06;100.00;99024.48;1714214;84;20975;-53
2022/08/29 02:18:17;;;;;;;10.95;7.05;;;;;;;19.04;100.00;99016.30;1714132;83;20959;-44
2022/08/29 02:20:44;;;;;;;10.20;7.15;;;;;;;18.95;100.00;99014.01;1713936;84;20992;-44
2022/08/29 02:23:10;;;;;;;8.45;6.90;;;;;;;18.97;100.00;99016.03;1714041;82;21528;-58
2022/08/29 02:25:42;;;;;;;8.93;7.13;;;;;;;18.95;100.00;99021.50;1714224;83;21035;-56
2022/08/29 02:28:13;;;;;;;8.93;5.60;;;;;;;18.91;100.00;99016.63;1714031;84;20999;-50
2022/08/29 02:30:41;;;;;;;7.17;5.92;;;;;;;18.85;100.00;99023.88;1713944;84;20999;-45
2022/08/29 02:33:08;;;;;;;8.78;6.42;;;;;;;18.83;100.00;99022.68;1713982;84;20983;-49
2022/08/29 02:35:35;;;;;;;8.35;5.80;;;;;;;18.84;100.00;99022.18;1714080;82;21489;-39
2022/08/29 02:38:02;;;;;;;6.55;5.70;;;;;;;18.78;100.00;99020.91;1719937;83;21031;-55
2022/08/29 02:43:24;;;;;;;7.80;5.87;;;;;;;18.86;100.00;99026.36;1801177;79;22607;-52
2022/08/29 02:45:50;;;;;;;7.17;6.10;;;;;;;18.78;100.00;99026.23;1761787;80;21007;-56
2022/08/29 02:48:16;;;;;;;8.33;5.55;;;;;;;18.75;100.00;99026.00;1761875;81;21034;-51
2022/08/29 02:50:49;;;;;;;7.22;5.97;;;;;;;18.75;100.00;99028.67;1762105;81;20998;-57
2022/08/29 02:53:18;;;;;;;8.35;6.30;;;;;;;18.78;100.00;99028.89;1761905;80;21559;-49
2022/08/29 02:55:46;;;;;;;8.38;6.47;;;;;;;18.80;100.00;99034.41;1761848;81;21038;-46
2022/08/29 02:58:13;;;;;;;10.10;5.80;;;;;;;18.73;100.00;99039.96;1761801;81;20987;-52
2022/08/29 03:00:39;;;;;;;14.50;7.62;;;;;;;18.72;100.00;99035.64;1762104;80;21034;-53
2022/08/29 03:03:05;;;;;;;11.75;6.87;;;;;;;18.79;100.00;99032.75;1761805;80;21034;-52
2022/08/29 03:05:33;;;;;;;9.93;7.17;;;;;;;18.79;100.00;99038.08;1761831;81;21023;-48
2022/08/29 03:08:03;;;;;;;12.23;7.92;;;;;;;18.79;100.00;99039.88;1761951;80;20991;-46
2022/08/29 03:10:29;;;;;;;12.68;8.13;;;;;;;18.73;100.00;99043.13;1761838;80;20999;-42
2022/08/29 03:12:55;;;;;;;13.15;8.53;;;;;;;18.71;100.00;99043.27;1761764;80;20995;-53
2022/08/29 03:15:22;;;;;;;14.93;9.13;;;;;;;18.65;100.00;99044.34;1761833;80;20991;-48
2022/08/29 03:17:48;;;;;;;15.58;9.18;;;;;;;18.58;100.00;99040.91;1761959;81;20971;-50
2022/08/29 03:20:17;;;;;;;13.50;7.97;;;;;;;18.55;100.00;99045.17;1761887;81;21461;-57
2022/08/29 03:22:44;;;;;;;16.17;9.30;;;;;;;18.49;100.00;99043.59;1761781;81;21027;-51
2022/08/29 03:25:11;;;;;;;14.03;9.03;;;;;;;18.60;100.00;99055.41;1761950;81;20984;-47
2022/08/29 03:27:38;;;;;;;13.10;8.60;;;;;;;18.60;100.00;99058.08;1761889;81;20975;-45
2022/08/29 03:30:07;;;;;;;12.88;9.13;;;;;;;18.64;100.00;99058.13;1761958;81;21341;-52
2022/08/29 03:32:33;;;;;;;16.25;7.87;;;;;;;18.64;100.00;99064.80;1761800;81;20983;-51
2022/08/29 03:34:59;;;;;;;15.05;8.83;;;;;;;18.61;100.00;99062.44;1761791;81;21414;-53
2022/08/29 03:37:25;;;;;;;12.68;8.68;;;;;;;18.63;100.00;99059.61;1761819;80;20971;-49
2022/08/29 03:39:52;;;;;;;12.47;8.00;;;;;;;18.63;100.00;99064.46;1762017;80;21038;-48
2022/08/29 03:42:19;;;;;;;14.75;7.78;;;;;;;18.60;100.00;99064.23;1755491;81;21012;-60
2022/08/29 03:44:45;;;;;;;10.93;7.70;;;;;;;18.61;100.00;99073.92;1748804;81;20987;-52
2022/08/29 03:47:11;;;;;;;9.25;7.03;;;;;;;18.61;100.00;99073.09;1748771;81;20972;-48
2022/08/29 03:49:37;;;;;;;8.90;6.87;;;;;;;18.63;100.00;99080.44;1748885;81;20996;-51
2022/08/29 03:52:04;;;;;;;13.80;7.78;;;;;;;18.55;100.00;99080.29;1748728;81;20988;-40
2022/08/29 03:54:30;;;;;;;10.55;7.15;;;;;;;18.58;100.00;99094.66;1748299;81;21491;-52
2022/08/29 03:56:56;;;;;;;13.70;8.25;;;;;;;18.64;100.00;99094.09;1748308;81;21027;-47
2022/08/29 03:59:22;;;;;;;10.82;7.03;;;;;;;18.65;100.00;99102.94;1748206;81;20988;-48
2022/08/29 04:01:49;;;;;;;10.85;7.15;;;;;;;18.64;100.00;99107.41;1748423;81;20952;-49
2022/08/29 04:07:05;;;;;;;11.78;7.00;;;;;;;18.61;99.33;99112.53;1748380;82;21500;-46
2022/08/29 04:09:32;;;;;;;14.40;6.97;;;;;;;18.59;98.58;99114.50;1748164;81;20980;-54
2022/08/29 04:11:58;;;;;;;11.68;7.20;;;;;;;18.59;98.25;99115.83;1748365;81;20996;-59
2022/08/29 04:14:24;;;;;;;13.40;7.22;;;;;;;18.56;99.37;99117.94;1748186;81;20984;-46
2022/08/29 04:16:50;;;;;;;13.58;6.80;;;;;;;18.56;98.49;99124.09;1748145;81;20968;-50
2022/08/29 04:19:18;;;;;;;8.45;6.92;;;;;;;18.55;98.36;99125.56;1748176;81;20995;-45
2022/08/29 04:21:44;;;;;;;8.43;6.75;;;;;;;18.58;98.56;99126.63;1748082;81;21441;-46
2022/08/29 04:24:20;;;;;;;17.17;6.93;;;;;;;18.53;98.39;99123.03;1748463;81;20994;-48
2022/08/29 04:26:46;;;;;;;9.40;6.35;;;;;;;18.54;98.72;99123.39;1748128;81;21489;-56
2022/08/29 04:29:12;;;;;;;8.85;6.80;;;;;;;18.51;98.44;99131.66;1748154;81;20991;-48
2022/08/29 04:31:41;;;;;;;8.40;6.70;;;;;;;18.49;98.24;99132.78;1748405;82;21035;-54
2022/08/29 04:34:09;;;;;;;11.45;7.00;;;;;;;18.49;97.84;99133.63;1748140;81;21031;-48
2022/08/29 04:36:37;;;;;;;9.98;6.42;;;;;;;18.49;97.87;99138.95;1748157;81;21527;-52
2022/08/29 04:39:05;;;;;;;11.45;6.90;;;;;;;18.49;97.85;99138.95;1748184;81;21030;-59
2022/08/29 04:41:31;;;;;;;;;;;;;;;18.47;97.19;99142.23;1750730;81;20987;-49
2022/08/29 04:43:56;;;;;;;14.90;7.33;;;;;;;18.39;97.11;99142.94;1748479;82;20125;-54
2022/08/29 04:46:22;;;;;;;10.18;6.80;;;;;;;18.34;96.83;99137.19;1748255;81;21528;-58
2022/08/29 04:48:48;;;;;;;13.95;7.50;;;;;;;18.28;97.14;99141.74;1748172;81;21087;-49
2022/08/29 04:51:14;;;;;;;12.80;7.17;;;;;;;18.21;97.87;99145.44;1748098;81;20995;-46
2022/08/29 04:53:41;;;;;;;13.83;7.17;;;;;;;18.22;97.82;99143.11;1748140;81;20999;-53
2022/08/29 04:56:10;;;;;;;;;;;;;;;18.23;97.78;99145.30;1750749;81;21431;-53
2022/08/29 04:58:40;;;;;;;15.65;7.22;;;;;;;18.20;98.44;99148.23;1737664;82;20129;-48
2022/08/29 05:01:06;;;;;;;14.33;6.30;;;;;;;18.18;98.38;99144.36;1748060;81;20995;-55
2022/08/29 05:03:33;;;;;;;11.93;7.20;;;;;;;18.16;97.98;99143.67;1748413;81;21039;-55
2022/08/29 05:06:05;;;;;;;11.43;6.92;;;;;;;18.16;97.92;99151.65;1748225;81;21426;-50
2022/08/29 05:08:33;;;;;;;10.18;6.75;;;;;;;18.15;97.65;99153.11;1748120;81;21476;-50
2022/08/29 05:10:59;;;;;;;11.53;6.50;;;;;;;18.14;97.83;99162.09;1748241;81;21024;-54
2022/08/29 05:13:25;;;;;;;8.08;5.83;;;;;;;18.12;96.78;99166.22;1748143;81;21026;-53
2022/08/29 05:15:51;;;;;;;12.63;6.30;;;;;;;18.07;96.84;99170.27;1748046;81;20991;-53
2022/08/29 05:18:17;;;;;;;9.38;5.85;;;;;;;18.09;96.04;99169.63;1737725;82;21473;-49
2022/08/29 05:20:46;;;;;;;7.95;5.87;;;;;;;18.00;96.70;99169.95;1748441;82;20987;-46
2022/08/29 05:23:14;;;;;;;10.78;6.08;;;;;;;17.98;96.58;99167.42;1748115;81;21000;-44
2022/08/29 05:25:40;;;;;;;14.60;6.12;;;;;;;18.02;96.16;99167.99;1748102;81;21418;-56
2022/08/29 05:28:06;;;;;;;10.05;6.35;;;;;;;18.07;95.69;99172.92;1748134;81;20984;-58
2022/08/29 05:30:32;;;;;;;11.68;4.97;;;;;;;18.02;95.16;99176.81;1748167;81;21560;-45
2022/08/29 05:32:59;;;;;;;14.07;5.75;;;;;;;18.01;94.85;99179.14;1748099;82;21031;-42
2022/08/29 05:35:25;;;;;;;9.08;5.47;;;;;;;17.97;94.05;99177.73;1748122;81;20987;-49
2022/08/29 05:37:51;;;;;;;13.30;5.65;;;;;;;17.98;94.02;99183.88;1748123;81;20964;-50
2022/08/29 05:40:18;;;;;;;11.68;5.42;;;;;;;17.99;93.62;99183.75;1748111;81;20995;-52
2022/08/29 05:42:43;;;;;;;9.05;5.05;;;;;;;17.92;93.26;99175.95;1748078;80;21019;-52
2022/08/29 05:45:10;;;;;;;10.82;4.40;;;;;;;17.88;92.79;99189.14;1748071;81;20992;-48
2022/08/29 05:47:36;;;;;;;12.65;4.35;;;;;;;17.86;92.87;99187.11;1748366;81;21438;-58
2022/08/29 05:50:01;;;;;;;9.08;4.15;;;;;;;17.84;92.35;99183.72;1748111;81;21031;-57
2022/08/29 05:52:28;;;;;;;10.75;4.62;;;;;;;17.82;91.92;99192.33;1748084;82;20999;-52
2022/08/29 05:54:53;;;;;;;8.30;4.33;;;;;;;17.82;91.54;99190.99;1748102;81;21027;-60
2022/08/29 05:57:22;;;;;;;8.30;4.45;;;;;;;17.81;91.03;99192.82;1748018;81;20988;-55
2022/08/29 05:59:51;;;;;;;9.53;4.15;;;;;;;17.81;90.83;99198.14;1748101;81;21493;-57
2022/08/29 06:02:19;;;;;;;11.53;4.37;;;;;;;17.73;90.00;99191.30;1747040;81;21063;-47
2022/08/29 06:04:45;;;;;;;9.45;4.05;;;;;;;17.78;89.82;99196.23;1748042;81;21000;-59
2022/08/29 06:07:13;;;;;;;10.93;3.62;;;;;;;17.69;89.00;99198.36;1746953;81;21043;-49
2022/08/29 06:09:40;;;;;;;12.47;3.55;;;;;;;17.67;88.69;99201.15;1761743;81;21183;-51
2022/08/29 06:12:08;;;;;;;;;;;;;;;17.72;89.12;99200.73;1776756;80;20958;-54
2022/08/29 06:14:35;;;;;;;8.65;3.60;;;;;;;17.67;88.89;99209.13;1783314;80;20112;-51
2022/08/29 06:17:03;;;;;;;9.28;3.72;;;;;;;17.70;88.81;99207.55;1784613;80;21503;-50
2022/08/29 06:19:33;;;;;;;11.75;3.60;;;;;;;17.65;88.55;99215.90;1783792;80;21021;-47
2022/08/29 06:21:57;;;;;;;11.00;3.45;;;;;;;17.72;88.54;99224.20;1783695;79;21074;-54
2022/08/29 06:24:22;;;;;;;12.93;3.42;;;;;;;17.65;88.08;99221.22;1783184;80;21053;-48
2022/08/29 06:26:48;;;;;;;11.15;3.55;;;;;;;17.77;88.13;99230.44;1784285;80;21072;-49
2022/08/29 06:29:15;;;;;;;11.85;3.87;;;;;;;17.73;87.43;99234.34;1784342;79;21498;-49
2022/08/29 06:31:41;;;;;;;7.80;3.15;;;;;;;17.76;87.09;99233.59;1784511;80;21002;-54
2022/08/29 06:34:08;;;;;;;11.08;3.67;;;;;;;17.79;87.09;99230.69;1784194;80;20974;-49
2022/08/29 06:36:34;;;;;;;11.83;3.52;;;;;;;17.76;87.14;99236.75;1784501;80;20986;-47
2022/08/29 06:39:05;;;;;;;9.20;3.62;;;;;;;17.72;86.49;99241.49;1784215;80;21017;-53
2022/08/29 06:41:32;;;;;;;8.20;3.35;;;;;;;17.79;85.76;99244.45;1784125;80;21025;-50
2022/08/29 06:43:58;;;;;;;10.90;3.90;;;;;;;17.74;85.68;99251.51;1790560;79;21018;-60
2022/08/29 06:46:31;;;;;;;10.23;3.50;;;;;;;17.77;86.38;99247.73;1792754;80;21021;-53
2022/08/29 06:49:01;;;;;;;11.15;3.80;;;;;;;17.80;86.39;99252.80;1793155;80;21467;-54
2022/08/29 06:51:31;;;;;;;9.15;3.70;;;;;;;17.79;85.41;99252.42;1792264;80;21490;-42
2022/08/29 06:53:56;;;;;;;9.95;3.10;;;;;;;17.89;86.03;99256.02;1792102;80;21026;-48
2022/08/29 06:56:21;;;;;;;11.97;3.65;;;;;;;17.94;84.86;99255.64;1792204;79;20985;-60
2022/08/29 06:58:47;;;;;;;13.68;3.75;;;;;;;17.95;83.73;99259.47;1791930;80;21318;-54
2022/08/29 07:01:16;;;;;;;18.10;3.52;;;;;;;17.96;83.36;99257.17;1791724;80;21545;-50
2022/08/29 07:03:42;;;;;;;12.37;3.42;;;;;;;17.93;82.02;99265.41;1792697;79;21006;-50
2022/08/29 07:06:09;;;;;;;8.03;3.55;;;;;;;18.00;82.83;99269.23;1792989;79;20981;-55
2022/08/29 07:08:36;;;;;;;8.85;3.05;;;;;;;18.03;81.87;99269.47;1792941;80;21056;-56
2022/08/29 07:11:02;;;;;;;9.13;3.05;;;;;;;18.09;81.66;99276.08;1792424;80;21049;-53
2022/08/29 07:13:28;;;;;;;9.55;3.37;;;;;;;18.15;81.92;99269.71;1792507;80;21033;-45
2022/08/29 07:15:53;;;;;;;12.40;3.05;;;;;;;18.18;80.16;99267.29;1792232;79;21017;-49
2022/08/29 07:18:20;;;;;;;6.45;3.25;;;;;;;18.22;78.58;99278.02;1792224;80;21506;-56
2022/08/29 07:20:46;;;;;;;13.88;3.12;;;;;;;18.25;78.03;99271.59;1792254;80;21699;-49
2022/08/29 07:23:12;;;;;;;10.43;3.17;;;;;;;18.26;77.94;99271.44;1792460;80;21122;-49
2022/08/29 07:25:38;;;;;;;6.95;3.20;;;;;;;18.27;77.82;99262.48;1791936;80;21014;-48
2022/08/29 07:28:05;;;;;;;11.25;3.60;;;;;;;18.24;76.43;99270.73;1791943;80;21006;-53
2022/08/29 07:30:31;;;;;;;;;;;;;;;18.31;77.63;99271.05;1794883;80;21028;-54
2022/08/29 07:32:56;;;;;;;11.03;2.80;;;;;;;18.34;75.87;99269.45;1791877;79;20119;-48
2022/08/29 07:35:24;;;;;;;9.98;2.83;;;;;;;18.36;76.11;99277.65;1791973;80;21234;-56
2022/08/29 07:37:51;;;;;;;;;;;;;;;18.45;76.48;99277.83;1794923;80;21009;-51
2022/08/29 07:40:17;;;;;;;6.85;3.20;;;;;;;18.42;74.73;99276.27;1792219;80;20155;-53
2022/08/29 07:42:43;;;;;;;5.30;2.70;;;;;;;18.53;75.71;99275.31;1790184;80;21543;-51
2022/08/29 07:45:11;;;;;;;8.90;3.07;;;;;;;18.48;74.81;99276.20;1783346;80;20990;-53
2022/08/29 07:47:38;;;;;;;11.10;3.95;;;;;;;18.57;75.82;99288.70;1783509;80;21558;-46
2022/08/29 07:50:09;;;;;;;6.62;2.98;;;;;;;18.65;75.43;99296.03;1784128;79;20994;-61
2022/08/29 07:52:36;;;;;;;6.58;2.90;;;;;;;18.69;73.94;99294.28;1783541;80;21025;-52
2022/08/29 07:55:04;;;;;;;9.90;3.05;;;;;;;18.76;74.09;99295.42;1783406;80;21138;-60
2022/08/29 07:57:30;;;;;;;6.37;3.27;;;;;;;18.75;71.71;99291.55;1783541;80;21022;-55
2022/08/29 07:59:56;;;;;;;10.13;2.70;;;;;;;18.85;72.90;99295.62;1783947;80;21502;-50
2022/08/29 08:02:22;;;;;;;8.70;3.33;;;;;;;18.90;72.97;99314.67;1783089;80;21014;-55
2022/08/29 08:04:47;;;;;;;8.10;3.15;;;;;;;18.86;71.16;99307.95;1783039;80;20971;-48
2022/08/29 08:07:15;;;;;;;11.95;3.15;;;;;;;18.95;71.98;99298.63;1783322;80;21467;-54
2022/08/29 08:09:41;;;;;;;9.98;3.08;;;;;;;19.03;72.08;99308.61;1766398;79;20984;-47
2022/08/29 08:12:08;;;;;;;19.35;3.50;;;;;;;19.07;70.50;99305.19;1747735;81;20980;-47
2022/08/29 08:14:34;;;;;;;11.43;3.00;;;;;;;19.17;70.63;99308.20;1747850;82;20984;-52
2022/08/29 08:17:00;;;;;;;8.25;3.17;;;;;;;19.21;69.55;99317.23;1746783;82;21077;-52
2022/08/29 08:19:26;;;;;;;7.70;2.90;;;;;;;19.28;70.08;99311.70;1746473;81;21016;-47
2022/08/29 08:21:52;;;;;;;8.83;2.95;;;;;;;19.29;69.10;99311.56;1746934;81;21005;-53
2022/08/29 08:24:20;;;;;;;7.30;3.15;;;;;;;19.34;69.58;99312.49;1747992;82;20996;-41
2022/08/29 08:26:47;;;;;;;8.15;2.87;;;;;;;19.38;68.61;99312.05;1747174;82;21066;-50
2022/08/29 08:29:13;;;;;;;16.52;3.22;;;;;;;19.36;68.02;99307.86;1747738;82;20944;-47
2022/08/29 08:31:46;;;;;;;10.28;3.42;;;;;;;19.40;68.30;99307.92;1747334;82;21051;-53
2022/08/29 08:34:14;;;;;;;5.92;2.77;;;;;;;19.44;68.22;99306.64;1746233;81;21015;-58
2022/08/29 08:36:42;;;;;;;9.05;3.05;;;;;;;19.56;68.64;99313.52;1746368;82;21560;-49
2022/08/29 08:39:08;;;;;;;7.58;2.65;;;;;;;19.69;68.15;99313.22;1746875;82;20991;-52
2022/08/29 08:41:45;;;;;;;7.00;2.70;;;;;;;19.80;67.56;99312.76;1746406;82;21040;-52
2022/08/29 08:44:25;;;;;;;9.58;2.50;;;;;;;19.86;67.06;99313.00;1741279;82;21310;-54
2022/08/29 08:46:58;;;;;;;7.85;3.20;;;;;;;19.96;65.58;99317.50;1738513;81;21047;-50
2022/08/29 08:49:44;;;;;;;11.30;2.80;;;;;;;19.97;64.59;99322.67;1718795;82;21043;-53
2022/08/29 08:52:27;;;;;;;14.87;3.10;;;;;;;20.09;64.51;99319.36;1739024;82;21035;-52
2022/08/29 08:55:01;;;;;;;9.83;2.67;;;;;;;20.15;64.17;99314.76;1739046;82;21019;-49
2022/08/29 08:57:42;;;;;;;8.08;2.95;;;;;;;20.19;62.79;99314.80;1742560;81;20995;-49
2022/08/29 09:00:12;;;;;;;9.48;3.00;;;;;;;20.29;62.55;99319.62;1746285;82;20956;-52
2022/08/29 09:03:02;;;;;;;8.03;2.87;;;;;;;20.36;61.53;99317.22;1739563;82;22224;-51
2022/08/29 09:05:36;;;;;;;5.72;2.37;;;;;;;20.52;62.01;99311.25;1738894;82;21043;-46
2022/08/29 09:08:20;;;;;;;8.53;2.87;;;;;;;20.64;61.28;99311.91;1740741;82;21015;-55
2022/08/29 09:11:10;;;;;;;9.63;2.72;;;;;;;20.73;60.43;99309.68;1745088;82;21560;-55
2022/08/29 09:13:59;;;;;;;9.03;2.85;;;;;;;20.98;60.16;99301.44;1745055;82;21020;-52
2022/08/29 09:16:31;;;;;;;7.05;3.17;;;;;;;21.28;59.14;99310.94;1745737;82;21493;-45
2022/08/29 09:19:04;;;;;;;5.45;2.90;;;;;;;21.53;57.56;99322.37;1746108;81;20964;-54
2022/08/29 09:21:37;;;;;;;8.65;3.58;;;;;;;21.62;57.42;99324.11;1745950;82;21011;-54
2022/08/29 09:24:07;;;;;;;9.65;2.80;;;;;;;21.89;57.30;99319.12;1745324;82;21028;-51
2022/08/29 09:26:34;;;;;;;12.43;3.05;;;;;;;22.43;57.10;99333.72;1745432;82;21008;-55
2022/08/29 09:29:00;;;;;;;8.83;3.53;;;;;;;23.03;52.62;99335.44;1746699;82;21437;-53
2022/08/29 09:31:34;;;;;;;10.28;2.62;;;;;;;23.30;54.28;99333.00;1745373;82;21083;-52
2022/08/29 09:34:08;;;;;;;11.75;3.08;;;;;;;23.37;53.03;99320.57;1744893;82;21551;-48
2022/08/29 09:36:47;;;;;;;9.40;2.58;;;;;;;23.10;54.31;99327.58;1745377;82;21007;-56
2022/08/29 09:39:24;;;;;;;5.00;2.62;;;;;;;23.63;54.15;99332.16;1745354;82;21035;-46
2022/08/29 09:41:56;;;;;;;11.00;2.33;;;;;;;24.05;52.73;99329.80;1746892;82;21630;-43
2022/08/29 09:44:32;;;;;;;9.93;2.47;;;;;;;24.17;48.79;99322.23;1755887;81;21004;-49
2022/08/29 09:47:26;;;;;;;6.78;2.65;;;;;;;24.74;50.29;99329.27;1760684;81;20983;-49
2022/08/29 09:50:14;;;;;;;8.58;2.52;;;;;;;25.33;48.77;99317.52;1760462;81;21027;-46
2022/08/29 09:52:53;;;;;;;6.75;2.55;;;;;;;25.21;48.67;99324.30;1747254;81;20983;-51
2022/08/29 09:55:36;;;;;;;4.00;2.22;;;;;;;25.17;47.81;99328.36;1730789;81;21054;-48
2022/08/29 09:58:06;;;;;;;6.33;2.45;;;;;;;25.31;47.53;99325.45;1730586;82;21003;-44
2022/08/29 10:00:37;;;;;;;7.45;3.22;;;;;;;25.03;46.20;99335.33;1734273;81;20976;-53
2022/08/29 10:03:08;;;;;;;8.45;2.58;;;;;;;24.95;47.10;99316.56;1730348;82;21038;-43
2022/08/29 10:05:44;;;;;;;6.62;2.55;;;;;;;25.57;46.42;99324.55;1730290;82;20979;-50
2022/08/29 10:08:35;;;;;;;6.37;2.27;;;;;;;25.67;43.70;99325.16;1730509;82;20971;-46
2022/08/29 10:11:07;;;;;;;6.90;2.60;;;;;;;25.26;45.01;99329.50;1730292;82;20975;-53
2022/08/29 10:14:02;;;;;;;6.00;2.95;;;;;;;24.78;45.63;99332.80;1707177;82;21066;-57
2022/08/29 10:16:36;;;;;;;7.22;2.47;;;;;;;24.12;45.68;99330.79;1730206;82;21026;-47
2022/08/29 10:19:08;;;;;;;4.67;2.30;;;;;;;23.53;45.91;99335.02;1730270;82;21027;-50
2022/08/29 10:21:51;;;;;;;7.17;2.40;;;;;;;23.96;46.02;99330.34;1730099;82;20994;-48
2022/08/29 10:24:47;;;;;;;8.23;2.35;;;;;;;24.73;46.44;99324.41;1729864;82;21046;-46
2022/08/29 10:27:46;;;;;;;9.60;2.40;;;;;;;25.19;43.11;99337.09;1724067;83;21011;-43
2022/08/29 10:30:19;;;;;;;8.50;3.08;;;;;;;24.86;43.04;99327.87;1730222;82;21508;-51
2022/08/29 10:33:25;;;;;;;9.05;2.83;;;;;;;25.26;45.18;99324.63;1730428;82;20995;-45
2022/08/29 10:36:05;;;;;;;;;;;;;;;26.05;44.33;99323.82;1732528;82;20987;-50
2022/08/29 10:38:45;;;;;;;6.33;2.30;;;;;;;26.95;41.61;99327.83;1729871;82;20451;-52
2022/08/29 10:41:34;;;;;;;5.95;2.55;;;;;;;27.45;41.36;99316.66;1730575;82;21055;-48
2022/08/29 10:44:40;;;;;;;6.72;2.60;;;;;;;27.15;39.41;99314.03;1730416;83;21552;-49
2022/08/29 10:47:29;;;;;;;6.28;2.22;;;;;;;27.66;39.30;99317.66;1730203;82;21496;-48
2022/08/29 10:50:00;;;;;;;4.87;2.80;;;;;;;27.37;37.75;99308.14;1730317;83;20975;-51
2022/08/29 10:53:06;;;;;;;6.87;2.17;;;;;;;27.10;38.52;99324.55;1730287;82;21007;-48
2022/08/29 10:55:41;;;;;;;;;;;;;;;27.39;37.78;99318.76;1732892;82;21083;-52
2022/08/29 10:58:34;;;;;;;5.45;2.77;;;;;;;26.35;36.54;99323.00;1717682;83;20118;-44
2022/08/29 11:01:23;;;;;;;4.92;2.08;;;;;;;26.31;38.22;99323.88;1730057;82;21094;-48
2022/08/29 11:04:03;;;;;;;8.03;2.58;;;;;;;26.52;38.17;99316.88;1730329;82;21622;-43
2022/08/29 11:06:52;;;;;;;8.40;2.77;;;;;;;27.24;38.08;99317.44;1722510;82;21015;-51
2022/08/29 11:09:23;;;;;;;6.80;2.40;;;;;;;27.51;37.12;99326.67;1730638;82;20999;-40
2022/08/29 11:12:12;;;;;;;6.83;2.80;;;;;;;26.54;37.00;99317.53;1730304;82;21003;-47
2022/08/29 11:14:44;;;;;;;6.70;2.45;;;;;;;26.83;37.56;99329.34;1730180;81;20999;-50
2022/08/29 11:17:14;;;;;;;7.62;2.35;;;;;;;26.96;37.35;99318.69;1728852;82;21067;-45
2022/08/29 11:20:01;;;;;;;3.65;2.27;;;;;;;27.14;38.14;99333.97;1730459;83;21339;-45
2022/08/29 11:22:30;;;;;;;;;;;;;;;27.27;36.53;99321.64;1733246;82;20999;-48
2022/08/29 11:25:10;;;;;;;12.10;2.50;;;;;;;27.68;36.60;99325.05;1728605;82;20107;-47
2022/08/29 11:28:20;;;;;;;5.37;2.27;;;;;;;28.10;36.36;99331.42;1730897;82;20971;-54
2022/08/29 11:31:13;;;;;;;6.08;2.72;;;;;;;28.71;35.10;99328.88;1731003;83;21014;-51
2022/08/29 11:33:57;;;;;;;8.68;3.02;;;;;;;28.13;34.67;99327.80;1730146;82;21078;-53
2022/08/29 11:36:44;;;;;;;5.50;2.50;;;;;;;28.01;33.61;99328.55;1725009;83;21524;-54
2022/08/29 11:39:34;;;;;;;;;;;;;;;28.45;34.32;99336.83;1732227;82;21536;-48
2022/08/29 11:42:04;;;;;;;4.35;2.20;;;;;;;28.38;31.33;99338.16;1730178;82;20110;-44
2022/08/29 11:44:35;;;;;;;10.03;2.75;;;;;;;29.81;33.30;99333.31;1753569;80;21023;-47
2022/08/29 11:47:21;;;;;;;4.58;2.12;;;;;;;30.43;29.59;99344.22;1761020;81;21018;-52
2022/08/29 11:49:50;;;;;;;3.98;2.22;;;;;;;30.88;30.40;99340.70;1760934;81;21036;-44
2022/08/29 11:52:21;;;;;;;3.72;2.55;;;;;;;30.97;30.26;99344.86;1760384;81;21031;-45
2022/08/29 11:54:53;;;;;;;4.90;2.10;;;;;;;31.25;29.69;99339.58;1760603;81;21461;-51
2022/08/29 11:57:30;;;;;;;4.53;2.37;;;;;;;31.90;29.25;99324.38;1760676;81;21046;-52